Time;durP1;ratioP1;P1;durP2;ratioP2;P2;SDS_P1;SDS_P2;PMS_P1;PMS_P2;Temp;Humidity;BMP_temperature;BMP_pressure;BME280_temperature;BME280_humidity;BME280_pressure;Samples;Min_cycle;Max_cycle;Signal;HPM_P1;HPM_P2
2023/06/02 00:02:08;;;;;;;;;;;;;;;14.41;98.00;95116.69;5136637;27;1048;-55
2023/06/02 00:04:37;;;;;;;;;;;;;;;14.55;98.33;95125.75;5136235;27;1052;-55
2023/06/02 00:07:03;;;;;;;;;;;;;;;14.60;97.40;95124.22;5136752;27;1054;-55
2023/06/02 00:09:29;;;;;;;;;;;;;;;14.62;97.04;95127.56;5136317;27;1115;-55
2023/06/02 00:11:55;;;;;;;;;;;;;;;14.49;96.08;95121.97;5136468;27;1992;-55
2023/06/02 00:14:21;;;;;;;;;;;;;;;14.14;97.75;95129.75;5136527;27;1007;-55
2023/06/02 00:16:48;;;;;;;;;;;;;;;14.10;98.95;95131.13;5136001;27;1116;-55
2023/06/02 00:19:14;;;;;;;;;;;;;;;14.27;97.76;95126.44;5136026;27;1271;-55
2023/06/02 00:21:41;;;;;;;;;;;;;;;14.39;97.94;95129.50;5136046;27;1040;-55
2023/06/02 00:24:07;;;;;;;;;;;;;;;14.33;98.66;95114.94;5117893;27;1108;-55
2023/06/02 00:26:33;;;;;;;;;;;;;;;14.12;97.84;95112.13;5136180;27;1146;-55
2023/06/02 00:28:59;;;;;;;;;;;;;;;14.01;98.10;95114.25;5136261;27;1051;-55
2023/06/02 00:31:25;;;;;;;;;;;;;;;14.06;97.46;95114.53;5135845;27;1991;-55
2023/06/02 00:33:51;;;;;;;;;;;;;;;14.16;96.49;95116.94;5135795;27;997;-55
2023/06/02 00:36:17;;;;;;;;;;;;;;;14.22;95.83;95110.84;5135739;27;1021;-55
2023/06/02 00:38:43;;;;;;;;;;;;;;;14.25;96.85;95112.34;5136051;27;1044;-55
2023/06/02 00:41:09;;;;;;;;;;;;;;;13.99;96.29;95118.13;5135985;27;1093;-55
2023/06/02 00:43:35;;;;;;;;;;;;;;;13.79;96.91;95115.97;5135814;27;1245;-55
2023/06/02 00:46:01;;;;;;;;;;;;;;;13.73;97.49;95108.63;5135360;27;1060;-55
2023/06/02 00:48:27;;;;;;;;;;;;;;;13.88;97.28;95111.34;5135525;27;1040;-55
2023/06/02 00:50:53;;;;;;;;;;;;;;;14.05;97.03;95109.34;5135492;27;1084;-56
2023/06/02 00:53:19;;;;;;;;;;;;;;;14.15;96.81;95104.53;5135246;27;1901;-56
2023/06/02 00:55:46;;;;;;;;;;;;;;;14.08;96.91;95102.78;5135711;27;1001;-55
2023/06/02 00:58:13;;;;;;;;;;;;;;;13.92;96.28;95095.69;5135673;27;1052;-55
2023/06/02 01:00:41;;;;;;;;;;;;;;;13.89;96.75;95106.81;5135643;27;973;-56
2023/06/02 01:03:07;;;;;;;;;;;;;;;13.78;97.05;95098.16;5135337;27;1047;-55
2023/06/02 01:05:36;;;;;;;;;;;;;;;13.63;96.94;95106.19;5135107;27;1000;-56
2023/06/02 01:08:03;;;;;;;;;;;;;;;13.58;97.19;95099.69;5117292;27;1073;-56
2023/06/02 01:10:31;;;;;;;;;;;;;;;13.72;96.25;95098.91;5135296;27;973;-55
2023/06/02 01:12:57;;;;;;;;;;;;;;;13.88;96.30;95097.91;5135189;27;1929;-55
2023/06/02 01:15:23;;;;;;;;;;;;;;;13.76;96.62;95100.22;5135033;27;918;-56
2023/06/02 01:17:51;;;;;;;;;;;;;;;13.69;96.26;95096.56;5134760;27;1290;-56
2023/06/02 01:20:21;;;;;;;;;;;;;;;13.72;95.08;95095.41;5135105;27;1043;-56
2023/06/02 01:23:06;;;;;;;;;;;;;;;13.72;95.18;95098.91;5135219;27;1078;-54
2023/06/02 01:25:32;;;;;;;;;;;;;;;13.73;95.49;95087.13;5134784;27;918;-56
2023/06/02 01:27:59;;;;;;;;;;;;;;;13.71;95.96;95091.03;5134756;27;1157;-56
2023/06/02 01:30:25;;;;;;;;;;;;;;;13.71;95.94;95094.53;5134967;27;1029;-56
2023/06/02 01:32:57;;;;;;;;;;;;;;;13.69;95.91;95088.50;5134528;27;1933;-56
2023/06/02 01:35:26;;;;;;;;;;;;;;;13.51;95.73;95093.38;5134930;27;1028;-56
2023/06/02 01:37:56;;;;;;;;;;;;;;;13.23;96.90;95092.03;5134921;27;1048;-56
2023/06/02 01:40:26;;;;;;;;;;;;;;;13.09;98.07;95090.97;5134568;27;1096;-55
2023/06/02 01:42:52;;;;;;;;;;;;;;;13.24;97.57;95087.50;5116421;27;957;-55
2023/06/02 01:45:19;;;;;;;;;;;;;;;13.39;97.12;95090.28;5134451;27;996;-56
2023/06/02 01:47:45;;;;;;;;;;;;;;;13.31;97.41;95085.81;5134672;27;977;-56
2023/06/02 01:50:11;;;;;;;;;;;;;;;13.19;97.25;95082.69;5134803;27;1000;-56
2023/06/02 01:52:37;;;;;;;;;;;;;;;13.26;97.00;95085.47;5134557;27;2413;-56
2023/06/02 01:55:03;;;;;;;;;;;;;;;13.31;96.85;95076.94;5134818;27;1081;-55
2023/06/02 01:57:30;;;;;;;;;;;;;;;13.35;96.42;95070.19;5133932;27;1039;-55
2023/06/02 01:59:56;;;;;;;;;;;;;;;13.31;96.81;95077.75;5134553;27;1012;-55
2023/06/02 02:02:22;;;;;;;;;;;;;;;13.33;96.32;95074.91;5134134;27;1103;-56
2023/06/02 02:04:49;;;;;;;;;;;;;;;13.22;95.95;95082.34;5116354;27;1063;-56
2023/06/02 02:07:19;;;;;;;;;;;;;;;13.11;96.69;95079.22;5134402;27;1012;-56
2023/06/02 02:09:46;;;;;;;;;;;;;;;13.02;97.66;95068.53;5134622;27;1031;-56
2023/06/02 02:12:12;;;;;;;;;;;;;;;12.89;98.23;95068.28;5134209;28;2003;-56
2023/06/02 02:14:38;;;;;;;;;;;;;;;12.91;98.99;95071.63;5134159;28;1044;-56
2023/06/02 02:17:04;;;;;;;;;;;;;;;13.09;97.69;95069.50;5134238;28;1111;-56
2023/06/02 02:19:31;;;;;;;;;;;;;;;13.24;96.38;95071.38;5134058;28;1053;-56
2023/06/02 02:21:57;;;;;;;;;;;;;;;13.23;95.91;95075.09;5134303;28;1044;-56
2023/06/02 02:24:23;;;;;;;;;;;;;;;13.35;95.35;95072.88;5134367;28;1027;-56
2023/06/02 02:26:49;;;;;;;;;;;;;;;13.28;94.69;95072.72;5134082;28;1204;-56
2023/06/02 02:29:15;;;;;;;;;;;;;;;13.13;94.66;95063.75;5133932;28;1040;-56
2023/06/02 02:31:41;;;;;;;;;;;;;;;13.04;95.18;95074.56;5133950;28;1902;-56
2023/06/02 02:34:07;;;;;;;;;;;;;;;13.00;95.43;95073.25;5133941;28;933;-56
2023/06/02 02:36:33;;;;;;;;;;;;;;;12.79;95.71;95078.44;5133994;28;1019;-56
2023/06/02 02:39:00;;;;;;;;;;;;;;;12.58;96.72;95068.31;5134256;28;1304;-55
2023/06/02 02:41:26;;;;;;;;;;;;;;;12.46;97.92;95062.47;5133927;28;980;-56
2023/06/02 02:43:52;;;;;;;;;;;;;;;12.69;97.19;95063.38;5134248;28;1048;-56
2023/06/02 02:46:18;;;;;;;;;;;;;;;12.94;96.78;95060.56;5133811;28;1053;-56
2023/06/02 02:48:44;;;;;;;;;;;;;;;13.00;96.19;95062.50;5133808;28;1491;-55
2023/06/02 02:51:10;;;;;;;;;;;;;;;12.91;97.17;95065.44;5134115;28;1001;-55
2023/06/02 02:53:36;;;;;;;;;;;;;;;12.94;96.80;95070.44;5133582;28;1959;-55
2023/06/02 02:56:02;;;;;;;;;;;;;;;12.95;96.70;95066.75;5134203;28;1032;-55
2023/06/02 02:58:31;;;;;;;;;;;;;;;12.98;96.97;95064.53;5133801;28;1056;-55
2023/06/02 03:00:57;;;;;;;;;;;;;;;12.82;95.63;95067.31;5133905;28;1119;-55
2023/06/02 03:03:23;;;;;;;;;;;;;;;12.68;96.11;95066.22;5133915;28;976;-56
2023/06/02 03:05:49;;;;;;;;;;;;;;;12.56;96.19;95068.47;5133938;28;1032;-56
2023/06/02 03:08:17;;;;;;;;;;;;;;;12.53;97.10;95068.00;5135596;27;959;-56
2023/06/02 03:10:44;;;;;;;;;;;;;;;12.66;96.67;95062.91;5137935;27;1037;-56
2023/06/02 03:13:10;;;;;;;;;;;;;;;12.76;96.40;95057.31;5137600;27;2006;-56
2023/06/02 03:15:36;;;;;;;;;;;;;;;12.90;95.75;95061.94;5137506;27;1013;-55
2023/06/02 03:18:03;;;;;;;;;;;;;;;12.69;94.66;95062.53;5137323;27;1180;-55
2023/06/02 03:20:29;;;;;;;;;;;;;;;12.39;95.41;95062.34;5137415;27;1271;-55
2023/06/02 03:22:55;;;;;;;;;;;;;;;12.36;96.50;95062.69;5137495;27;976;-55
2023/06/02 03:25:22;;;;;;;;;;;;;;;12.45;97.13;95066.19;5137290;27;1129;-55
2023/06/02 03:27:51;;;;;;;;;;;;;;;12.59;96.51;95062.75;5137514;27;1345;-55
2023/06/02 03:30:17;;;;;;;;;;;;;;;12.56;96.28;95068.47;5137185;27;1500;-55
2023/06/02 03:32:43;;;;;;;;;;;;;;;12.70;96.21;95072.25;5137083;27;1991;-55
2023/06/02 03:35:09;;;;;;;;;;;;;;;12.90;94.51;95069.97;5137116;27;1053;-55
2023/06/02 03:37:35;;;;;;;;;;;;;;;12.98;95.09;95071.78;5137018;27;1628;-55
2023/06/02 03:40:04;;;;;;;;;;;;;;;12.79;95.29;95073.88;5137186;27;1036;-55
2023/06/02 03:42:30;;;;;;;;;;;;;;;12.78;96.38;95082.94;5136933;27;1099;-54
2023/06/02 03:44:55;;;;;;;;;;;;;;;12.66;96.88;95063.72;5136983;27;1045;-55
2023/06/02 03:47:21;;;;;;;;;;;;;;;12.97;97.78;95080.81;5136935;27;981;-55
2023/06/02 03:49:48;;;;;;;;;;;;;;;13.22;96.74;95078.78;5137059;27;1034;-55
2023/06/02 03:52:14;;;;;;;;;;;;;;;13.36;96.37;95075.38;5136946;27;1995;-55
2023/06/02 03:54:40;;;;;;;;;;;;;;;13.58;95.26;95073.69;5136843;27;1056;-55
2023/06/02 03:57:06;;;;;;;;;;;;;;;13.78;95.53;95070.47;5136738;27;1040;-55
2023/06/02 03:59:33;;;;;;;;;;;;;;;13.95;94.94;95069.28;5136863;27;1024;-55
2023/06/02 04:01:59;;;;;;;;;;;;;;;14.24;94.38;95067.63;5136560;27;1045;-55
2023/06/02 04:04:25;;;;;;;;;;;;;;;14.35;94.55;95069.84;5136859;27;1293;-55
2023/06/02 04:06:52;;;;;;;;;;;;;;;14.44;93.96;95060.66;5136611;27;1036;-56
2023/06/02 04:09:19;;;;;;;;;;;;;;;14.63;93.94;95067.34;5136523;27;1067;-55
2023/06/02 04:11:45;;;;;;;;;;;;;;;14.82;94.95;95062.41;5136376;27;1989;-55
2023/06/02 04:14:12;;;;;;;;;;;;;;;14.81;95.51;95071.47;5136687;27;969;-55
2023/06/02 04:16:37;;;;;;;;;;;;;;;14.81;95.46;95069.63;5136288;27;1147;-55
2023/06/02 04:19:05;;;;;;;;;;;;;;;15.05;94.76;95070.31;5135956;27;970;-54
2023/06/02 04:21:31;;;;;;;;;;;;;;;15.39;94.42;95066.91;5136117;27;1159;-55
2023/06/02 04:23:57;;;;;;;;;;;;;;;15.53;94.00;95069.75;5136430;27;1032;-55
2023/06/02 04:26:23;;;;;;;;;;;;;;;15.71;92.88;95071.97;5136168;27;1232;-55
2023/06/02 04:28:49;;;;;;;;;;;;;;;15.91;93.38;95069.47;5136114;27;1987;-55
2023/06/02 04:31:26;;;;;;;;;;;;;;;16.17;92.01;95074.19;5136110;27;1063;-55
2023/06/02 04:33:53;;;;;;;;;;;;;;;16.31;92.61;95069.72;5136032;27;1115;-55
2023/06/02 04:36:20;;;;;;;;;;;;;;;16.33;92.37;95073.03;5135884;27;1037;-55
2023/06/02 04:38:46;;;;;;;;;;;;;;;16.25;91.58;95081.31;5135950;27;1045;-55
2023/06/02 04:41:14;;;;;;;;;;;;;;;16.20;91.66;95084.59;5135701;27;1046;-55
2023/06/02 04:43:42;;;;;;;;;;;;;;;16.35;89.15;95081.78;5136115;27;965;-55
2023/06/02 04:46:08;;;;;;;;;;;;;;;16.35;90.39;95076.38;5135660;27;1116;-55
2023/06/02 04:48:37;;;;;;;;;;;;;;;16.59;88.68;95073.19;5135978;27;961;-55
2023/06/02 04:51:03;;;;;;;;;;;;;;;16.60;87.50;95079.44;5117491;27;1649;-56
2023/06/02 04:53:29;;;;;;;;;;;;;;;16.70;87.52;95081.75;5135707;27;1913;-55
2023/06/02 04:55:56;;;;;;;;;;;;;;;16.82;85.88;95085.56;5135539;27;975;-56
2023/06/02 04:58:22;;;;;;;;;;;;;;;16.81;82.78;95092.00;5135800;27;1334;-55
2023/06/02 05:00:48;;;;;;;;;;;;;;;16.85;83.70;95093.28;5135448;27;1104;-54
2023/06/02 05:03:14;;;;;;;;;;;;;;;16.86;82.97;95094.94;5135428;27;1072;-55
2023/06/02 05:05:40;;;;;;;;;;;;;;;17.14;82.14;95097.53;5135684;27;1040;-55
2023/06/02 05:08:06;;;;;;;;;;;;;;;17.06;81.67;95088.78;5135320;27;1036;-55
2023/06/02 05:10:32;;;;;;;;;;;;;;;17.14;82.81;95094.00;5135191;27;1061;-55
2023/06/02 05:12:58;;;;;;;;;;;;;;;17.08;83.38;95086.72;5135351;27;1987;-55
2023/06/02 05:15:24;;;;;;;;;;;;;;;16.95;83.28;95091.03;5134976;27;1086;-55
2023/06/02 05:17:52;;;;;;;;;;;;;;;17.23;81.92;95094.66;5135070;27;1225;-55
2023/06/02 05:20:18;;;;;;;;;;;;;;;17.28;83.21;95095.72;5134953;27;1120;-55
2023/06/02 05:22:44;;;;;;;;;;;;;;;17.45;80.12;95088.03;5135006;27;1021;-55
2023/06/02 05:25:10;;;;;;;;;;;;;;;17.42;82.29;95093.88;5134992;27;1049;-54
2023/06/02 05:27:36;;;;;;;;;;;;;;;17.47;81.47;95090.53;5135187;27;1157;-55
2023/06/02 05:30:02;;;;;;;;;;;;;;;17.68;82.54;95092.22;5135116;27;1029;-55
2023/06/02 05:32:28;;;;;;;;;;;;;;;17.85;80.61;95093.53;5134728;27;1987;-55
2023/06/02 05:34:54;;;;;;;;;;;;;;;17.98;79.70;95092.69;5135175;27;1024;-55
2023/06/02 05:37:21;;;;;;;;;;;;;;;18.22;78.37;95096.63;5134660;27;1065;-55
2023/06/02 05:39:46;;;;;;;;;;;;;;;18.34;78.98;95102.22;5135057;27;1023;-54
2023/06/02 05:42:14;;;;;;;;;;;;;;;18.26;78.15;95100.56;5134644;27;1973;-55
2023/06/02 05:44:40;;;;;;;;;;;;;;;18.38;78.38;95089.94;5134834;27;1036;-55
2023/06/02 05:47:06;;;;;;;;;;;;;;;18.54;76.70;95088.66;5134877;27;988;-54
2023/06/02 05:49:32;;;;;;;;;;;;;;;18.84;74.67;95091.72;5134523;27;1065;-55
2023/06/02 05:51:58;;;;;;;;;;;;;;;18.89;76.31;95091.94;5134741;27;2347;-55
2023/06/02 05:54:24;;;;;;;;;;;;;;;18.98;74.36;95097.09;5116540;27;1060;-55
2023/06/02 05:56:50;;;;;;;;;;;;;;;18.96;74.95;95096.47;5134684;27;1035;-55
2023/06/02 05:59:16;;;;;;;;;;;;;;;18.91;77.36;95097.97;5134765;27;1048;-55
2023/06/02 06:01:42;;;;;;;;;;;;;;;19.08;75.81;95094.75;5134630;27;1048;-55
2023/06/02 06:04:08;;;;;;;;;;;;;;;19.44;74.46;95088.72;5134473;27;1227;-55
2023/06/02 06:06:36;;;;;;;;;;;;;;;19.80;73.64;95094.56;5134249;27;1053;-55
2023/06/02 06:09:02;;;;;;;;;;;;;;;20.03;74.62;95091.25;5134388;27;2059;-55
2023/06/02 06:11:28;;;;;;;;;;;;;;;20.11;74.28;95099.13;5134514;27;1909;-56
2023/06/02 06:13:54;;;;;;;;;;;;;;;20.22;73.62;95093.00;5116308;28;1112;-56
2023/06/02 06:16:20;;;;;;;;;;;;;;;20.30;72.57;95100.00;5134036;28;1083;-56
2023/06/02 06:18:46;;;;;;;;;;;;;;;20.58;73.74;95099.53;5134290;28;1147;-56
2023/06/02 06:21:12;;;;;;;;;;;;;;;20.93;72.33;95090.81;5134312;28;1046;-56
2023/06/02 06:23:38;;;;;;;;;;;;;;;21.08;69.65;95097.72;5134158;28;1053;-56
2023/06/02 06:26:04;;;;;;;;;;;;;;;21.26;70.52;95095.81;5115622;28;1204;-56
2023/06/02 06:28:30;;;;;;;;;;;;;;;21.20;68.94;95090.47;5133431;28;1265;-56
2023/06/02 06:30:56;;;;;;;;;;;;;;;21.52;70.31;95107.44;5133903;28;1214;-56
2023/06/02 06:33:22;;;;;;;;;;;;;;;21.93;68.39;95096.78;5134190;28;1987;-57
2023/06/02 06:35:48;;;;;;;;;;;;;;;21.45;67.20;95098.53;5133932;28;1057;-57
2023/06/02 06:38:14;;;;;;;;;;;;;;;21.10;67.67;95104.63;5114568;28;1143;-56
2023/06/02 06:40:40;;;;;;;;;;;;;;;20.53;70.51;95115.66;5133809;28;1093;-56
2023/06/02 06:43:06;;;;;;;;;;;;;;;20.41;72.83;95112.00;5135747;27;1017;-56
2023/06/02 06:45:32;;;;;;;;;;;;;;;20.16;72.66;95104.72;5138378;27;968;-56
2023/06/02 06:47:58;;;;;;;;;;;;;;;20.05;75.17;95100.00;5138341;27;961;-56
2023/06/02 06:50:24;;;;;;;;;;;;;;;20.07;75.58;95104.19;5119964;27;985;-56
2023/06/02 06:52:50;;;;;;;;;;;;;;;20.22;74.83;95101.13;5138083;27;1901;-56
2023/06/02 06:55:16;;;;;;;;;;;;;;;20.06;74.54;95099.78;5137740;27;1131;-57
2023/06/02 06:57:42;;;;;;;;;;;;;;;19.99;74.57;95106.31;5138057;27;1047;-56
2023/06/02 07:00:09;;;;;;;;;;;;;;;19.79;75.57;95098.34;5137794;27;954;-56
2023/06/02 07:02:35;;;;;;;;;;;;;;;19.45;75.83;95100.41;5137927;27;1036;-56
2023/06/02 07:05:01;;;;;;;;;;;;;;;19.61;76.68;95107.19;5137574;27;1042;-56
2023/06/02 07:07:27;;;;;;;;;;;;;;;19.72;76.82;95109.22;5137791;27;1055;-56
2023/06/02 07:09:53;;;;;;;;;;;;;;;19.81;75.63;95104.38;5137580;27;1038;-56
2023/06/02 07:12:19;;;;;;;;;;;;;;;19.62;74.93;95101.56;5137565;27;1909;-56
2023/06/02 07:14:45;;;;;;;;;;;;;;;20.03;74.90;95105.69;5137441;27;1890;-56
2023/06/02 07:17:11;;;;;;;;;;;;;;;20.46;73.83;95102.13;5137222;27;1083;-56
2023/06/02 07:19:37;;;;;;;;;;;;;;;20.35;74.16;95102.88;5137268;27;1045;-56
2023/06/02 07:22:04;;;;;;;;;;;;;;;20.21;74.70;95104.06;5119156;27;1105;-56
2023/06/02 07:24:30;;;;;;;;;;;;;;;20.07;72.83;95112.31;5137440;27;1032;-56
2023/06/02 07:26:57;;;;;;;;;;;;;;;20.09;74.26;95098.53;5137178;27;1149;-56
2023/06/02 07:29:23;;;;;;;;;;;;;;;20.38;74.62;95102.44;5137175;27;992;-56
2023/06/02 07:31:49;;;;;;;;;;;;;;;20.43;73.67;95104.47;5137131;27;1910;-56
2023/06/02 07:34:15;;;;;;;;;;;;;;;20.39;73.64;95097.81;5137311;27;1064;-56
2023/06/02 07:36:43;;;;;;;;;;;;;;;20.12;73.73;95102.69;5137377;27;1021;-56
2023/06/02 07:39:09;;;;;;;;;;;;;;;20.20;75.51;95088.81;5137056;27;1116;-56
2023/06/02 07:41:35;;;;;;;;;;;;;;;20.39;72.60;95101.38;5136986;27;1116;-56
2023/06/02 07:44:01;;;;;;;;;;;;;;;20.64;73.68;95100.53;5118583;27;1092;-57
2023/06/02 07:46:27;;;;;;;;;;;;;;;20.87;72.74;95099.88;5136797;27;1115;-57
2023/06/02 07:48:53;;;;;;;;;;;;;;;20.85;73.03;95086.50;5137096;27;976;-57
2023/06/02 07:51:19;;;;;;;;;;;;;;;21.24;72.71;95087.06;5136745;27;1084;-57
2023/06/02 07:53:45;;;;;;;;;;;;;;;21.62;71.60;95083.22;5136255;27;1909;-57
2023/06/02 07:56:11;;;;;;;;;;;;;;;21.93;70.85;95077.75;5136157;27;1056;-57
2023/06/02 07:58:37;;;;;;;;;;;;;;;22.07;69.21;95078.38;5136536;27;1060;-57
2023/06/02 08:01:03;;;;;;;;;;;;;;;22.50;67.65;95074.50;5136655;27;1108;-57
2023/06/02 08:03:29;;;;;;;;;;;;;;;22.94;67.62;95074.94;5136370;27;1101;-57
2023/06/02 08:05:55;;;;;;;;;;;;;;;23.24;64.28;95076.63;5136820;27;1004;-57
2023/06/02 08:08:21;;;;;;;;;;;;;;;23.30;63.82;95062.88;5136609;27;972;-57
2023/06/02 08:10:47;;;;;;;;;;;;;;;23.54;64.27;95060.88;5136603;27;996;-57
2023/06/02 08:13:15;;;;;;;;;;;;;;;23.93;63.47;95063.78;5136250;27;1909;-57
2023/06/02 08:15:41;;;;;;;;;;;;;;;23.91;63.71;95055.00;5136616;27;965;-57
2023/06/02 08:18:14;;;;;;;;;;;;;;;23.84;66.50;95062.50;5136140;27;1230;-57
2023/06/02 08:20:44;;;;;;;;;;;;;;;24.03;62.90;95059.56;5136527;27;1024;-57
2023/06/02 08:23:10;;;;;;;;;;;;;;;23.85;62.34;95056.00;5136089;27;1049;-58
2023/06/02 08:25:37;;;;;;;;;;;;;;;23.83;65.29;95046.38;5136395;27;1044;-58
2023/06/02 08:28:05;;;;;;;;;;;;;;;23.90;62.98;95049.78;5136031;27;1161;-57
2023/06/02 08:30:35;;;;;;;;;;;;;;;23.69;62.17;95038.47;5135893;27;1048;-57
2023/06/02 08:33:08;;;;;;;;;;;;;;;24.28;62.76;95040.00;5136117;27;1918;-57
2023/06/02 08:35:44;;;;;;;;;;;;;;;24.28;59.79;95035.41;5136395;27;1027;-57
2023/06/02 08:38:16;;;;;;;;;;;;;;;24.46;61.68;95028.00;5136056;27;1016;-57
2023/06/02 08:40:45;;;;;;;;;;;;;;;24.63;60.20;95017.88;5136183;27;1001;-57
2023/06/02 08:43:12;;;;;;;;;;;;;;;24.99;57.73;95021.09;5135610;27;1044;-57
2023/06/02 08:45:39;;;;;;;;;;;;;;;24.88;59.91;95022.03;5135913;27;1016;-57
2023/06/02 08:48:06;;;;;;;;;;;;;;;24.76;55.11;95019.44;5135651;27;1231;-57
2023/06/02 08:50:33;;;;;;;;;;;;;;;24.57;54.97;95016.16;5135676;27;999;-57
2023/06/02 08:53:03;;;;;;;;;;;;;;;25.03;55.06;95010.47;5135819;27;1917;-57
2023/06/02 08:55:29;;;;;;;;;;;;;;;25.38;56.02;95006.50;5135722;27;964;-57
2023/06/02 08:57:56;;;;;;;;;;;;;;;25.56;53.59;95010.81;5135558;27;957;-57
2023/06/02 09:00:22;;;;;;;;;;;;;;;25.63;55.80;95000.44;5135309;27;1101;-57
2023/06/02 09:02:48;;;;;;;;;;;;;;;25.72;56.88;94993.41;5135676;27;973;-57
2023/06/02 09:05:16;;;;;;;;;;;;;;;25.34;53.91;95003.44;5135281;27;1025;-57
2023/06/02 09:07:43;;;;;;;;;;;;;;;25.40;54.73;95002.44;5135583;27;1242;-57
2023/06/02 09:10:09;;;;;;;;;;;;;;;25.57;54.62;94988.63;5135559;27;1092;-57
2023/06/02 09:12:48;;;;;;;;;;;;;;;25.61;55.00;94992.50;5134877;27;1996;-56
2023/06/02 09:15:14;;;;;;;;;;;;;;;25.56;55.42;94989.72;5135399;27;1020;-57
2023/06/02 09:17:40;;;;;;;;;;;;;;;25.55;53.55;94989.97;5135022;27;1087;-57
2023/06/02 09:20:10;;;;;;;;;;;;;;;25.42;53.18;94983.84;5135201;27;1143;-57
2023/06/02 09:22:55;;;;;;;;;;;;;;;25.88;54.06;94991.66;5135101;27;1113;-57
2023/06/02 09:25:22;;;;;;;;;;;;;;;25.60;55.19;94985.38;5135106;27;1071;-57
2023/06/02 09:27:56;;;;;;;;;;;;;;;25.83;57.90;94983.38;5134989;27;1165;-57
2023/06/02 09:30:23;;;;;;;;;;;;;;;26.15;56.56;94974.34;5134999;27;987;-57
2023/06/02 09:32:52;;;;;;;;;;;;;;;26.07;55.74;94961.97;5134763;27;1918;-57
2023/06/02 09:35:34;;;;;;;;;;;;;;;26.21;54.78;94968.63;5134755;27;1453;-57
2023/06/02 09:38:00;;;;;;;;;;;;;;;26.25;55.00;94961.53;5134982;27;1033;-57
2023/06/02 09:40:27;;;;;;;;;;;;;;;25.89;54.12;94966.72;5134645;27;1961;-57
2023/06/02 09:42:53;;;;;;;;;;;;;;;25.83;53.58;94956.00;5134561;27;936;-57
2023/06/02 09:45:19;;;;;;;;;;;;;;;26.05;55.23;94961.41;5134548;27;1116;-57
2023/06/02 09:47:48;;;;;;;;;;;;;;;26.13;51.46;94958.16;5134644;27;981;-57
2023/06/02 09:50:30;;;;;;;;;;;;;;;26.21;52.91;94952.19;5134409;27;1040;-57
2023/06/02 09:53:00;;;;;;;;;;;;;;;26.46;52.67;94953.44;5134382;27;1992;-57
2023/06/02 09:55:26;;;;;;;;;;;;;;;26.63;53.36;94954.09;5134530;27;1032;-57
2023/06/02 09:57:53;;;;;;;;;;;;;;;26.72;52.82;94939.88;5134479;27;1027;-57
2023/06/02 10:00:19;;;;;;;;;;;;;;;26.85;51.22;94953.09;5134320;27;1037;-57
2023/06/02 10:02:46;;;;;;;;;;;;;;;26.98;51.27;94938.88;5134331;27;1036;-57
2023/06/02 10:05:12;;;;;;;;;;;;;;;27.13;49.69;94940.84;5134497;27;1036;-58
2023/06/02 10:07:41;;;;;;;;;;;;;;;27.06;51.20;94940.28;5134652;27;1074;-58
2023/06/02 10:10:10;;;;;;;;;;;;;;;26.72;48.75;94939.88;5134311;27;1061;-57
2023/06/02 10:12:43;;;;;;;;;;;;;;;26.80;48.88;94931.94;5134231;27;1917;-57
2023/06/02 10:15:21;;;;;;;;;;;;;;;27.02;48.60;94933.69;5134326;27;1102;-58
2023/06/02 10:18:16;;;;;;;;;;;;;;;27.17;49.62;94921.94;5133303;27;1244;-57
2023/06/02 10:21:04;;;;;;;;;;;;;;;27.37;49.51;94923.91;5134328;28;1028;-58
2023/06/02 10:23:49;;;;;;;;;;;;;;;27.37;49.59;94923.91;5115910;28;1062;-57
2023/06/02 10:26:30;;;;;;;;;;;;;;;27.24;49.06;94917.81;5134150;28;1153;-57
2023/06/02 10:28:59;;;;;;;;;;;;;;;27.54;47.29;94923.66;5133967;28;1088;-57
2023/06/02 10:31:31;;;;;;;;;;;;;;;27.61;47.27;94925.03;5133917;28;1236;-57
2023/06/02 10:33:59;;;;;;;;;;;;;;;27.46;48.01;94917.59;5134302;28;993;-57
2023/06/02 10:36:25;;;;;;;;;;;;;;;27.42;47.03;94918.41;5132467;28;1041;-56
2023/06/02 10:38:51;;;;;;;;;;;;;;;27.26;45.39;94917.56;5134178;28;1020;-57
2023/06/02 10:41:21;;;;;;;;;;;;;;;27.41;48.61;94912.13;5133865;28;1116;-58
2023/06/02 10:44:06;;;;;;;;;;;;;;;27.57;46.56;94912.94;5133808;28;1104;-58
2023/06/02 10:46:32;;;;;;;;;;;;;;;27.71;46.63;94904.16;5133863;28;1040;-58
2023/06/02 10:48:58;;;;;;;;;;;;;;;27.84;47.04;94898.91;5133700;28;1041;-58
2023/06/02 10:51:24;;;;;;;;;;;;;;;28.00;48.43;94888.78;5133783;28;1085;-58
2023/06/02 10:54:01;;;;;;;;;;;;;;;28.07;46.08;94893.16;5134062;28;1897;-58
2023/06/02 10:56:40;;;;;;;;;;;;;;;27.96;46.92;94886.84;5133713;28;1044;-58
2023/06/02 10:59:07;;;;;;;;;;;;;;;27.73;44.76;94894.53;5133764;28;1061;-58
2023/06/02 11:01:46;;;;;;;;;;;;;;;27.72;45.58;94889.34;5133654;28;1061;-58
2023/06/02 11:04:25;;;;;;;;;;;;;;;27.36;46.52;94895.63;5133650;28;1115;-57
2023/06/02 11:07:12;;;;;;;;;;;;;;;27.08;47.59;94886.78;5133683;28;1037;-58
2023/06/02 11:09:43;;;;;;;;;;;;;;;26.59;47.36;94878.09;5134088;28;1281;-57
2023/06/02 11:12:09;;;;;;;;;;;;;;;27.00;47.88;94881.81;5133969;28;1905;-57
2023/06/02 11:14:53;;;;;;;;;;;;;;;27.30;48.19;94882.16;5133927;28;1009;-57
2023/06/02 11:17:27;;;;;;;;;;;;;;;27.41;46.97;94883.81;5133577;28;1115;-57
2023/06/02 11:19:54;;;;;;;;;;;;;;;27.38;46.48;94890.69;5133790;28;1020;-57
2023/06/02 11:22:20;;;;;;;;;;;;;;;27.40;46.18;94880.25;5133561;28;1015;-57
2023/06/02 11:24:46;;;;;;;;;;;;;;;26.99;46.47;94879.34;5133604;28;1048;-57
2023/06/02 11:27:12;;;;;;;;;;;;;;;26.92;46.31;94879.63;5133439;28;1161;-57
2023/06/02 11:29:38;;;;;;;;;;;;;;;26.92;46.72;94873.28;5136174;27;1005;-57
2023/06/02 11:32:05;;;;;;;;;;;;;;;26.73;45.94;94872.97;5137230;27;1988;-57
2023/06/02 11:34:31;;;;;;;;;;;;;;;26.57;46.59;94869.31;5118798;27;1069;-57
2023/06/02 11:37:10;;;;;;;;;;;;;;;26.45;44.76;94873.13;5137155;27;1042;-57
2023/06/02 11:40:03;;;;;;;;;;;;;;;26.65;46.89;94869.69;5137390;27;1231;-57
2023/06/02 11:42:35;;;;;;;;;;;;;;;26.92;44.78;94871.41;5134419;27;1069;-57
2023/06/02 11:45:02;;;;;;;;;;;;;;;27.06;45.10;94875.25;5137282;27;1032;-57
2023/06/02 11:47:28;;;;;;;;;;;;;;;27.20;46.82;94861.81;5136844;27;1023;-57
2023/06/02 11:49:54;;;;;;;;;;;;;;;27.01;44.47;94877.16;5137197;27;964;-57
2023/06/02 11:52:20;;;;;;;;;;;;;;;26.70;43.38;94873.53;5136736;27;1894;-58
2023/06/02 11:54:50;;;;;;;;;;;;;;;26.48;43.54;94867.13;5136809;27;1030;-57
2023/06/02 11:57:27;;;;;;;;;;;;;;;26.51;45.03;94865.75;5136627;27;1115;-57
2023/06/02 12:00:12;;;;;;;;;;;;;;;26.57;42.90;94867.41;5137004;27;1031;-57
2023/06/02 12:02:48;;;;;;;;;;;;;;;26.45;45.14;94869.56;5136859;27;1024;-58
2023/06/02 12:05:29;;;;;;;;;;;;;;;26.28;45.72;94865.09;5136580;27;1096;-58
2023/06/02 12:07:55;;;;;;;;;;;;;;;26.01;47.20;94858.91;5136554;27;1120;-58
2023/06/02 12:10:22;;;;;;;;;;;;;;;25.93;46.85;94856.69;5136726;27;984;-57
2023/06/02 12:12:48;;;;;;;;;;;;;;;25.98;46.49;94848.50;5136331;27;1984;-56
2023/06/02 12:15:15;;;;;;;;;;;;;;;25.90;48.90;94841.59;5136722;27;995;-57
2023/06/02 12:17:42;;;;;;;;;;;;;;;25.79;51.36;94843.44;5136208;27;1241;-57
2023/06/02 12:20:08;;;;;;;;;;;;;;;25.65;51.85;94851.28;5136465;27;957;-57
2023/06/02 12:22:34;;;;;;;;;;;;;;;25.64;50.03;94846.88;5136597;27;1051;-57
2023/06/02 12:25:10;;;;;;;;;;;;;;;25.74;51.34;94845.31;5136203;27;1105;-57
2023/06/02 12:27:36;;;;;;;;;;;;;;;25.86;51.94;94841.28;5136034;27;1168;-57
2023/06/02 12:30:02;;;;;;;;;;;;;;;26.10;51.12;94852.69;5136407;27;1043;-57
2023/06/02 12:32:29;;;;;;;;;;;;;;;26.30;51.15;94845.66;5136053;27;1914;-57
2023/06/02 12:34:55;;;;;;;;;;;;;;;26.45;48.75;94842.16;5135995;27;945;-57
2023/06/02 12:37:20;;;;;;;;;;;;;;;26.52;49.13;94836.41;5135941;27;1014;-57
2023/06/02 12:39:47;;;;;;;;;;;;;;;26.57;49.23;94840.00;5135813;27;1395;-57
2023/06/02 12:42:16;;;;;;;;;;;;;;;26.67;50.15;94829.09;5135483;27;1032;-57
2023/06/02 12:44:43;;;;;;;;;;;;;;;26.70;49.97;94835.94;5136180;27;1017;-57
2023/06/02 12:47:09;;;;;;;;;;;;;;;26.54;46.87;94843.28;5136117;27;1153;-57
2023/06/02 12:49:37;;;;;;;;;;;;;;;26.51;48.15;94826.56;5135730;27;1050;-57
2023/06/02 12:52:03;;;;;;;;;;;;;;;26.48;47.12;94823.25;5135601;27;1905;-57
2023/06/02 12:54:29;;;;;;;;;;;;;;;26.44;45.28;94832.25;5135589;27;1001;-56
2023/06/02 12:56:56;;;;;;;;;;;;;;;26.24;46.97;94825.63;5135482;27;1064;-56
2023/06/02 12:59:22;;;;;;;;;;;;;;;26.13;46.12;94817.63;5135845;27;1048;-56
2023/06/02 13:01:48;;;;;;;;;;;;;;;26.11;46.01;94815.16;5135461;27;1153;-57